Terminal Aerodrome Forecast
Issued by NWS

Home | Current Version | Previous Version | Text Only | Print | Product List | Glossary On
Versions: 1 2 3 4 5 6 7 8 9 10 11 12 13 14 15 16 17 18
000
FTUS46 KMTR 130900 AAA
TAFMRY
TAF AMD
KMRY 130900Z 1309/1406 24006KT P6SM OVC005
     FM131800 28005KT P6SM SCT010
     FM132000 28010KT P6SM SKC
     FM140200 24008KT P6SM BKN010
     FM140400 24006KT P6SM OVC007=

USA.gov is the U.S. government's official web portal to all federal, state and local government web resources and services.